sensor_id;sensor_type;location;lat;lon;timestamp;P1;durP1;ratioP1;P2;durP2;ratioP2
11398;SDS011;5755;48.116;11.608;2022-12-07T00:01:07;14.17;;;10.50;;
11398;SDS011;5755;48.116;11.608;2022-12-07T00:03:35;13.67;;;10.50;;
11398;SDS011;5755;48.116;11.608;2022-12-07T00:06:10;13.33;;;9.97;;
11398;SDS011;5755;48.116;11.608;2022-12-07T00:08:38;13.50;;;10.23;;
11398;SDS011;5755;48.116;11.608;2022-12-07T00:11:06;12.47;;;9.23;;
11398;SDS011;5755;48.116;11.608;2022-12-07T00:13:35;13.57;;;9.57;;
11398;SDS011;5755;48.116;11.608;2022-12-07T00:16:03;11.43;;;8.90;;
11398;SDS011;5755;48.116;11.608;2022-12-07T00:18:33;11.87;;;9.17;;
11398;SDS011;5755;48.116;11.608;2022-12-07T00:21:00;12.80;;;9.50;;
11398;SDS011;5755;48.116;11.608;2022-12-07T00:23:28;11.50;;;8.97;;
11398;SDS011;5755;48.116;11.608;2022-12-07T00:25:55;16.77;;;12.17;;
11398;SDS011;5755;48.116;11.608;2022-12-07T00:28:27;11.33;;;8.80;;
11398;SDS011;5755;48.116;11.608;2022-12-07T00:30:59;10.77;;;8.43;;
11398;SDS011;5755;48.116;11.608;2022-12-07T00:33:27;10.73;;;8.67;;
11398;SDS011;5755;48.116;11.608;2022-12-07T00:35:56;10.60;;;8.33;;
11398;SDS011;5755;48.116;11.608;2022-12-07T00:38:23;11.37;;;8.60;;
11398;SDS011;5755;48.116;11.608;2022-12-07T00:40:53;11.13;;;8.73;;
11398;SDS011;5755;48.116;11.608;2022-12-07T00:43:21;9.93;;;8.17;;
11398;SDS011;5755;48.116;11.608;2022-12-07T00:45:48;9.83;;;8.03;;
11398;SDS011;5755;48.116;11.608;2022-12-07T00:48:15;9.07;;;7.73;;
11398;SDS011;5755;48.116;11.608;2022-12-07T00:50:45;10.90;;;8.33;;
11398;SDS011;5755;48.116;11.608;2022-12-07T00:53:14;9.53;;;8.27;;
11398;SDS011;5755;48.116;11.608;2022-12-07T00:55:41;10.43;;;8.23;;
11398;SDS011;5755;48.116;11.608;2022-12-07T00:58:09;10.23;;;8.37;;
11398;SDS011;5755;48.116;11.608;2022-12-07T01:00:36;9.40;;;8.33;;
11398;SDS011;5755;48.116;11.608;2022-12-07T01:03:05;9.77;;;7.90;;
11398;SDS011;5755;48.116;11.608;2022-12-07T01:05:33;10.00;;;8.40;;
11398;SDS011;5755;48.116;11.608;2022-12-07T01:08:00;9.77;;;7.97;;
11398;SDS011;5755;48.116;11.608;2022-12-07T01:10:28;9.67;;;7.73;;
11398;SDS011;5755;48.116;11.608;2022-12-07T01:12:56;9.10;;;8.20;;
11398;SDS011;5755;48.116;11.608;2022-12-07T01:15:24;9.17;;;7.80;;
11398;SDS011;5755;48.116;11.608;2022-12-07T01:17:51;10.17;;;8.20;;
11398;SDS011;5755;48.116;11.608;2022-12-07T01:20:19;11.63;;;7.87;;
11398;SDS011;5755;48.116;11.608;2022-12-07T01:22:46;8.70;;;7.30;;
11398;SDS011;5755;48.116;11.608;2022-12-07T01:25:13;8.53;;;7.13;;
11398;SDS011;5755;48.116;11.608;2022-12-07T01:27:41;9.43;;;7.90;;
11398;SDS011;5755;48.116;11.608;2022-12-07T01:30:09;11.23;;;7.80;;
11398;SDS011;5755;48.116;11.608;2022-12-07T01:32:37;9.83;;;7.50;;
11398;SDS011;5755;48.116;11.608;2022-12-07T01:35:04;9.03;;;7.30;;
11398;SDS011;5755;48.116;11.608;2022-12-07T01:37:33;9.33;;;7.67;;
11398;SDS011;5755;48.116;11.608;2022-12-07T01:40:02;11.57;;;7.33;;
11398;SDS011;5755;48.116;11.608;2022-12-07T01:42:30;10.17;;;7.73;;
11398;SDS011;5755;48.116;11.608;2022-12-07T01:48:12;9.27;;;7.10;;
11398;SDS011;5755;48.116;11.608;2022-12-07T01:50:42;8.63;;;7.50;;
11398;SDS011;5755;48.116;11.608;2022-12-07T01:53:11;8.60;;;7.03;;
11398;SDS011;5755;48.116;11.608;2022-12-07T01:55:40;8.83;;;7.00;;
11398;SDS011;5755;48.116;11.608;2022-12-07T01:58:10;7.70;;;6.90;;
11398;SDS011;5755;48.116;11.608;2022-12-07T02:00:38;9.47;;;7.90;;
11398;SDS011;5755;48.116;11.608;2022-12-07T02:03:08;8.90;;;7.60;;
11398;SDS011;5755;48.116;11.608;2022-12-07T02:05:41;9.97;;;7.43;;
11398;SDS011;5755;48.116;11.608;2022-12-07T02:08:15;8.97;;;7.63;;
11398;SDS011;5755;48.116;11.608;2022-12-07T02:10:45;9.70;;;7.63;;
11398;SDS011;5755;48.116;11.608;2022-12-07T02:13:13;9.47;;;7.33;;
11398;SDS011;5755;48.116;11.608;2022-12-07T02:15:57;8.80;;;6.80;;
11398;SDS011;5755;48.116;11.608;2022-12-07T02:18:48;8.57;;;7.20;;
11398;SDS011;5755;48.116;11.608;2022-12-07T02:21:29;8.93;;;7.43;;
11398;SDS011;5755;48.116;11.608;2022-12-07T02:27:17;9.80;;;7.77;;
11398;SDS011;5755;48.116;11.608;2022-12-07T02:30:11;9.90;;;7.90;;
11398;SDS011;5755;48.116;11.608;2022-12-07T02:32:42;10.00;;;7.70;;
11398;SDS011;5755;48.116;11.608;2022-12-07T02:35:17;9.40;;;7.77;;
11398;SDS011;5755;48.116;11.608;2022-12-07T02:37:51;12.20;;;8.17;;
11398;SDS011;5755;48.116;11.608;2022-12-07T02:40:26;10.10;;;8.17;;
11398;SDS011;5755;48.116;11.608;2022-12-07T02:42:58;10.37;;;7.60;;
11398;SDS011;5755;48.116;11.608;2022-12-07T02:45:31;9.23;;;7.60;;
11398;SDS011;5755;48.116;11.608;2022-12-07T02:48:02;10.87;;;7.77;;
11398;SDS011;5755;48.116;11.608;2022-12-07T02:50:29;10.87;;;7.83;;
11398;SDS011;5755;48.116;11.608;2022-12-07T02:52:56;10.83;;;8.10;;
11398;SDS011;5755;48.116;11.608;2022-12-07T02:55:26;8.97;;;7.60;;
11398;SDS011;5755;48.116;11.608;2022-12-07T02:58:05;11.17;;;7.97;;
11398;SDS011;5755;48.116;11.608;2022-12-07T03:00:44;9.50;;;7.70;;
11398;SDS011;5755;48.116;11.608;2022-12-07T03:03:18;10.57;;;8.27;;
11398;SDS011;5755;48.116;11.608;2022-12-07T03:05:52;12.43;;;7.93;;
11398;SDS011;5755;48.116;11.608;2022-12-07T03:08:29;9.60;;;7.63;;
11398;SDS011;5755;48.116;11.608;2022-12-07T03:11:04;10.73;;;8.07;;
11398;SDS011;5755;48.116;11.608;2022-12-07T03:13:34;9.63;;;7.83;;
11398;SDS011;5755;48.116;11.608;2022-12-07T03:16:10;10.90;;;7.90;;
11398;SDS011;5755;48.116;11.608;2022-12-07T03:18:43;9.20;;;7.70;;
11398;SDS011;5755;48.116;11.608;2022-12-07T03:21:14;9.20;;;7.33;;
11398;SDS011;5755;48.116;11.608;2022-12-07T03:23:44;9.37;;;8.27;;
11398;SDS011;5755;48.116;11.608;2022-12-07T03:26:15;9.07;;;7.30;;
11398;SDS011;5755;48.116;11.608;2022-12-07T03:28:47;10.60;;;7.53;;
11398;SDS011;5755;48.116;11.608;2022-12-07T03:31:20;10.33;;;7.90;;
11398;SDS011;5755;48.116;11.608;2022-12-07T03:33:52;9.93;;;7.90;;
11398;SDS011;5755;48.116;11.608;2022-12-07T03:36:26;10.47;;;7.93;;
11398;SDS011;5755;48.116;11.608;2022-12-07T03:38:57;10.23;;;7.87;;
11398;SDS011;5755;48.116;11.608;2022-12-07T03:41:33;9.87;;;8.00;;
11398;SDS011;5755;48.116;11.608;2022-12-07T03:44:03;9.43;;;7.53;;
11398;SDS011;5755;48.116;11.608;2022-12-07T03:46:34;8.63;;;7.73;;
11398;SDS011;5755;48.116;11.608;2022-12-07T03:49:08;12.10;;;8.63;;
11398;SDS011;5755;48.116;11.608;2022-12-07T03:51:41;12.83;;;8.27;;
11398;SDS011;5755;48.116;11.608;2022-12-07T03:54:13;10.03;;;8.53;;
11398;SDS011;5755;48.116;11.608;2022-12-07T03:56:45;9.87;;;8.40;;
11398;SDS011;5755;48.116;11.608;2022-12-07T03:59:13;8.77;;;7.73;;
11398;SDS011;5755;48.116;11.608;2022-12-07T04:01:43;9.17;;;8.13;;
11398;SDS011;5755;48.116;11.608;2022-12-07T04:04:11;9.53;;;7.93;;
11398;SDS011;5755;48.116;11.608;2022-12-07T04:06:38;9.23;;;8.00;;
11398;SDS011;5755;48.116;11.608;2022-12-07T04:09:04;10.77;;;7.97;;
11398;SDS011;5755;48.116;11.608;2022-12-07T04:11:31;10.23;;;8.00;;
11398;SDS011;5755;48.116;11.608;2022-12-07T04:13:58;9.40;;;7.83;;
11398;SDS011;5755;48.116;11.608;2022-12-07T04:16:50;10.63;;;8.47;;
11398;SDS011;5755;48.116;11.608;2022-12-07T04:19:18;10.90;;;8.40;;
11398;SDS011;5755;48.116;11.608;2022-12-07T04:21:46;12.03;;;8.40;;
11398;SDS011;5755;48.116;11.608;2022-12-07T04:24:14;11.73;;;8.80;;
11398;SDS011;5755;48.116;11.608;2022-12-07T04:26:41;10.57;;;8.17;;
11398;SDS011;5755;48.116;11.608;2022-12-07T04:29:09;10.90;;;8.30;;
11398;SDS011;5755;48.116;11.608;2022-12-07T04:31:37;10.97;;;8.13;;
11398;SDS011;5755;48.116;11.608;2022-12-07T04:34:05;11.27;;;9.27;;
11398;SDS011;5755;48.116;11.608;2022-12-07T04:36:33;10.87;;;8.93;;
11398;SDS011;5755;48.116;11.608;2022-12-07T04:39:00;11.67;;;9.13;;
11398;SDS011;5755;48.116;11.608;2022-12-07T04:41:27;11.63;;;9.00;;
11398;SDS011;5755;48.116;11.608;2022-12-07T04:43:58;11.80;;;8.83;;
11398;SDS011;5755;48.116;11.608;2022-12-07T04:46:26;12.20;;;9.13;;
11398;SDS011;5755;48.116;11.608;2022-12-07T04:48:55;11.87;;;9.10;;
11398;SDS011;5755;48.116;11.608;2022-12-07T04:51:25;10.50;;;8.93;;
11398;SDS011;5755;48.116;11.608;2022-12-07T04:53:53;10.63;;;9.17;;
11398;SDS011;5755;48.116;11.608;2022-12-07T04:56:21;12.57;;;9.93;;
11398;SDS011;5755;48.116;11.608;2022-12-07T04:58:49;12.50;;;9.67;;
11398;SDS011;5755;48.116;11.608;2022-12-07T05:01:17;13.13;;;10.37;;
11398;SDS011;5755;48.116;11.608;2022-12-07T05:03:45;12.67;;;9.83;;
11398;SDS011;5755;48.116;11.608;2022-12-07T05:06:12;10.53;;;8.90;;
11398;SDS011;5755;48.116;11.608;2022-12-07T05:08:41;12.67;;;9.27;;
11398;SDS011;5755;48.116;11.608;2022-12-07T05:11:09;12.20;;;9.93;;
11398;SDS011;5755;48.116;11.608;2022-12-07T05:13:58;11.00;;;9.20;;
11398;SDS011;5755;48.116;11.608;2022-12-07T05:16:25;11.07;;;8.87;;
11398;SDS011;5755;48.116;11.608;2022-12-07T05:18:53;12.57;;;9.73;;
11398;SDS011;5755;48.116;11.608;2022-12-07T05:21:20;10.20;;;8.60;;
11398;SDS011;5755;48.116;11.608;2022-12-07T05:23:48;12.10;;;8.77;;
11398;SDS011;5755;48.116;11.608;2022-12-07T05:26:15;12.77;;;9.33;;
11398;SDS011;5755;48.116;11.608;2022-12-07T05:28:42;11.20;;;8.93;;
11398;SDS011;5755;48.116;11.608;2022-12-07T05:31:09;10.20;;;9.00;;
11398;SDS011;5755;48.116;11.608;2022-12-07T05:33:36;10.73;;;9.00;;
11398;SDS011;5755;48.116;11.608;2022-12-07T05:36:03;11.47;;;8.87;;
11398;SDS011;5755;48.116;11.608;2022-12-07T05:38:32;10.17;;;8.73;;
11398;SDS011;5755;48.116;11.608;2022-12-07T05:41:02;12.07;;;9.00;;
11398;SDS011;5755;48.116;11.608;2022-12-07T05:43:30;10.80;;;8.63;;
11398;SDS011;5755;48.116;11.608;2022-12-07T05:45:56;12.47;;;9.53;;
11398;SDS011;5755;48.116;11.608;2022-12-07T05:48:23;12.87;;;8.67;;
11398;SDS011;5755;48.116;11.608;2022-12-07T05:50:52;10.60;;;8.77;;
11398;SDS011;5755;48.116;11.608;2022-12-07T05:53:19;10.67;;;8.80;;
11398;SDS011;5755;48.116;11.608;2022-12-07T05:55:46;10.20;;;8.57;;
11398;SDS011;5755;48.116;11.608;2022-12-07T05:58:14;10.80;;;8.53;;
11398;SDS011;5755;48.116;11.608;2022-12-07T06:00:58;11.67;;;8.97;;
11398;SDS011;5755;48.116;11.608;2022-12-07T06:03:30;12.47;;;8.30;;
11398;SDS011;5755;48.116;11.608;2022-12-07T06:05:58;11.67;;;8.67;;
11398;SDS011;5755;48.116;11.608;2022-12-07T06:08:25;9.97;;;8.87;;
11398;SDS011;5755;48.116;11.608;2022-12-07T06:10:51;12.07;;;10.20;;
11398;SDS011;5755;48.116;11.608;2022-12-07T06:13:40;12.10;;;9.53;;
11398;SDS011;5755;48.116;11.608;2022-12-07T06:16:09;10.73;;;9.40;;
11398;SDS011;5755;48.116;11.608;2022-12-07T06:18:36;11.17;;;9.27;;
11398;SDS011;5755;48.116;11.608;2022-12-07T06:21:03;11.23;;;9.57;;
11398;SDS011;5755;48.116;11.608;2022-12-07T06:23:33;13.80;;;10.60;;
11398;SDS011;5755;48.116;11.608;2022-12-07T06:26:04;13.80;;;11.03;;
11398;SDS011;5755;48.116;11.608;2022-12-07T06:28:30;12.90;;;9.80;;
11398;SDS011;5755;48.116;11.608;2022-12-07T06:30:59;12.90;;;10.30;;
11398;SDS011;5755;48.116;11.608;2022-12-07T06:33:27;12.23;;;10.40;;
11398;SDS011;5755;48.116;11.608;2022-12-07T06:35:57;13.07;;;10.10;;
11398;SDS011;5755;48.116;11.608;2022-12-07T06:38:24;12.93;;;10.47;;
11398;SDS011;5755;48.116;11.608;2022-12-07T06:40:51;12.33;;;10.20;;
11398;SDS011;5755;48.116;11.608;2022-12-07T06:43:18;13.70;;;10.50;;
11398;SDS011;5755;48.116;11.608;2022-12-07T06:45:45;13.77;;;9.80;;
11398;SDS011;5755;48.116;11.608;2022-12-07T06:48:14;12.47;;;10.47;;
11398;SDS011;5755;48.116;11.608;2022-12-07T06:50:41;13.70;;;10.37;;
11398;SDS011;5755;48.116;11.608;2022-12-07T06:53:10;14.07;;;10.43;;
11398;SDS011;5755;48.116;11.608;2022-12-07T06:55:37;14.03;;;10.70;;
11398;SDS011;5755;48.116;11.608;2022-12-07T06:58:04;13.13;;;10.50;;
11398;SDS011;5755;48.116;11.608;2022-12-07T07:00:31;13.47;;;10.37;;
11398;SDS011;5755;48.116;11.608;2022-12-07T07:02:59;14.40;;;11.07;;
11398;SDS011;5755;48.116;11.608;2022-12-07T07:05:28;14.03;;;10.47;;
11398;SDS011;5755;48.116;11.608;2022-12-07T07:07:55;12.07;;;10.07;;
11398;SDS011;5755;48.116;11.608;2022-12-07T07:10:22;13.03;;;10.30;;
11398;SDS011;5755;48.116;11.608;2022-12-07T07:12:49;13.70;;;10.57;;
11398;SDS011;5755;48.116;11.608;2022-12-07T07:15:15;12.67;;;10.17;;
11398;SDS011;5755;48.116;11.608;2022-12-07T07:17:43;12.03;;;10.00;;
11398;SDS011;5755;48.116;11.608;2022-12-07T07:20:10;12.87;;;10.30;;
11398;SDS011;5755;48.116;11.608;2022-12-07T07:22:39;12.00;;;9.83;;
11398;SDS011;5755;48.116;11.608;2022-12-07T07:25:16;13.03;;;9.67;;
11398;SDS011;5755;48.116;11.608;2022-12-07T07:27:44;11.53;;;9.43;;
11398;SDS011;5755;48.116;11.608;2022-12-07T07:30:11;14.80;;;10.50;;
11398;SDS011;5755;48.116;11.608;2022-12-07T07:32:38;13.40;;;10.10;;
11398;SDS011;5755;48.116;11.608;2022-12-07T07:35:06;13.73;;;9.97;;
11398;SDS011;5755;48.116;11.608;2022-12-07T07:37:33;11.60;;;9.57;;
11398;SDS011;5755;48.116;11.608;2022-12-07T07:40:02;12.53;;;9.77;;
11398;SDS011;5755;48.116;11.608;2022-12-07T07:42:29;12.77;;;9.43;;
11398;SDS011;5755;48.116;11.608;2022-12-07T07:44:56;12.07;;;9.33;;
11398;SDS011;5755;48.116;11.608;2022-12-07T07:47:23;11.17;;;9.20;;
11398;SDS011;5755;48.116;11.608;2022-12-07T07:49:50;12.83;;;9.83;;
11398;SDS011;5755;48.116;11.608;2022-12-07T07:52:17;13.10;;;9.70;;
11398;SDS011;5755;48.116;11.608;2022-12-07T07:54:44;13.23;;;9.60;;
11398;SDS011;5755;48.116;11.608;2022-12-07T07:57:12;11.13;;;9.00;;
11398;SDS011;5755;48.116;11.608;2022-12-07T07:59:39;13.00;;;9.80;;
11398;SDS011;5755;48.116;11.608;2022-12-07T08:02:07;13.40;;;9.77;;
11398;SDS011;5755;48.116;11.608;2022-12-07T08:04:40;11.67;;;9.60;;
11398;SDS011;5755;48.116;11.608;2022-12-07T08:07:07;13.40;;;10.00;;
11398;SDS011;5755;48.116;11.608;2022-12-07T08:09:46;11.40;;;9.10;;
11398;SDS011;5755;48.116;11.608;2022-12-07T08:12:14;12.80;;;9.97;;
11398;SDS011;5755;48.116;11.608;2022-12-07T08:14:46;12.43;;;9.30;;
11398;SDS011;5755;48.116;11.608;2022-12-07T08:17:13;12.23;;;9.47;;
11398;SDS011;5755;48.116;11.608;2022-12-07T08:19:39;13.53;;;10.20;;
11398;SDS011;5755;48.116;11.608;2022-12-07T08:22:06;12.77;;;9.60;;
11398;SDS011;5755;48.116;11.608;2022-12-07T08:24:34;14.43;;;9.87;;
11398;SDS011;5755;48.116;11.608;2022-12-07T08:27:01;14.47;;;11.00;;
11398;SDS011;5755;48.116;11.608;2022-12-07T08:29:29;13.03;;;9.70;;
11398;SDS011;5755;48.116;11.608;2022-12-07T08:31:56;14.13;;;10.13;;
11398;SDS011;5755;48.116;11.608;2022-12-07T08:34:25;12.20;;;9.60;;
11398;SDS011;5755;48.116;11.608;2022-12-07T08:36:52;11.67;;;9.57;;
11398;SDS011;5755;48.116;11.608;2022-12-07T08:39:20;14.73;;;10.83;;
11398;SDS011;5755;48.116;11.608;2022-12-07T08:41:47;12.87;;;9.97;;
11398;SDS011;5755;48.116;11.608;2022-12-07T08:44:13;12.00;;;9.87;;
11398;SDS011;5755;48.116;11.608;2022-12-07T08:46:44;13.37;;;10.10;;
11398;SDS011;5755;48.116;11.608;2022-12-07T08:49:15;12.93;;;9.77;;
11398;SDS011;5755;48.116;11.608;2022-12-07T08:51:45;13.10;;;10.47;;
11398;SDS011;5755;48.116;11.608;2022-12-07T08:54:13;12.03;;;9.63;;
11398;SDS011;5755;48.116;11.608;2022-12-07T08:56:42;12.57;;;9.77;;
11398;SDS011;5755;48.116;11.608;2022-12-07T08:59:10;11.63;;;9.30;;
11398;SDS011;5755;48.116;11.608;2022-12-07T09:01:39;13.47;;;10.03;;
11398;SDS011;5755;48.116;11.608;2022-12-07T09:04:08;14.93;;;10.23;;
11398;SDS011;5755;48.116;11.608;2022-12-07T09:06:36;13.17;;;9.90;;
11398;SDS011;5755;48.116;11.608;2022-12-07T09:09:03;11.93;;;10.00;;
11398;SDS011;5755;48.116;11.608;2022-12-07T09:11:31;13.33;;;10.20;;
11398;SDS011;5755;48.116;11.608;2022-12-07T09:13:58;11.80;;;9.23;;
11398;SDS011;5755;48.116;11.608;2022-12-07T09:16:25;11.27;;;9.17;;
11398;SDS011;5755;48.116;11.608;2022-12-07T09:18:53;12.43;;;8.67;;
11398;SDS011;5755;48.116;11.608;2022-12-07T09:21:21;11.77;;;9.43;;
11398;SDS011;5755;48.116;11.608;2022-12-07T09:23:48;12.80;;;9.00;;
11398;SDS011;5755;48.116;11.608;2022-12-07T09:26:15;12.00;;;9.63;;
11398;SDS011;5755;48.116;11.608;2022-12-07T09:28:42;12.53;;;10.07;;
11398;SDS011;5755;48.116;11.608;2022-12-07T09:31:09;12.90;;;9.23;;
11398;SDS011;5755;48.116;11.608;2022-12-07T09:33:40;12.77;;;9.60;;
11398;SDS011;5755;48.116;11.608;2022-12-07T09:36:07;11.63;;;9.33;;
11398;SDS011;5755;48.116;11.608;2022-12-07T09:38:36;11.53;;;9.50;;
11398;SDS011;5755;48.116;11.608;2022-12-07T09:41:04;12.07;;;8.97;;
11398;SDS011;5755;48.116;11.608;2022-12-07T09:43:33;13.23;;;8.73;;
11398;SDS011;5755;48.116;11.608;2022-12-07T09:46:02;11.07;;;9.23;;
11398;SDS011;5755;48.116;11.608;2022-12-07T09:48:31;10.07;;;8.90;;
11398;SDS011;5755;48.116;11.608;2022-12-07T09:51:01;9.30;;;8.00;;
11398;SDS011;5755;48.116;11.608;2022-12-07T09:53:30;9.83;;;8.47;;
11398;SDS011;5755;48.116;11.608;2022-12-07T09:56:02;9.67;;;8.00;;
11398;SDS011;5755;48.116;11.608;2022-12-07T09:58:30;11.17;;;8.73;;
11398;SDS011;5755;48.116;11.608;2022-12-07T10:01:00;11.73;;;9.03;;
11398;SDS011;5755;48.116;11.608;2022-12-07T10:03:31;10.63;;;8.90;;
11398;SDS011;5755;48.116;11.608;2022-12-07T10:05:59;11.77;;;9.32;;
11398;SDS011;5755;48.116;11.608;2022-12-07T10:08:26;10.77;;;8.32;;
11398;SDS011;5755;48.116;11.608;2022-12-07T10:10:53;9.85;;;8.25;;
11398;SDS011;5755;48.116;11.608;2022-12-07T10:13:33;10.75;;;8.27;;
11398;SDS011;5755;48.116;11.608;2022-12-07T10:16:01;10.68;;;7.65;;
11398;SDS011;5755;48.116;11.608;2022-12-07T10:18:29;8.95;;;7.97;;
11398;SDS011;5755;48.116;11.608;2022-12-07T10:23:58;9.40;;;7.32;;
11398;SDS011;5755;48.116;11.608;2022-12-07T10:26:30;9.00;;;7.75;;
11398;SDS011;5755;48.116;11.608;2022-12-07T10:29:12;8.40;;;7.22;;
11398;SDS011;5755;48.116;11.608;2022-12-07T10:31:42;8.60;;;7.00;;
11398;SDS011;5755;48.116;11.608;2022-12-07T10:34:15;7.78;;;6.97;;
11398;SDS011;5755;48.116;11.608;2022-12-07T10:36:49;9.48;;;6.57;;
11398;SDS011;5755;48.116;11.608;2022-12-07T10:39:22;7.60;;;6.80;;
11398;SDS011;5755;48.116;11.608;2022-12-07T10:41:53;7.70;;;6.43;;
11398;SDS011;5755;48.116;11.608;2022-12-07T10:44:24;9.27;;;6.60;;
11398;SDS011;5755;48.116;11.608;2022-12-07T10:47:13;8.15;;;6.47;;
11398;SDS011;5755;48.116;11.608;2022-12-07T10:52:45;9.48;;;6.57;;
11398;SDS011;5755;48.116;11.608;2022-12-07T10:55:30;7.45;;;6.53;;
11398;SDS011;5755;48.116;11.608;2022-12-07T10:58:15;6.82;;;5.97;;
11398;SDS011;5755;48.116;11.608;2022-12-07T11:01:04;8.98;;;6.32;;
11398;SDS011;5755;48.116;11.608;2022-12-07T11:03:46;6.45;;;5.60;;
11398;SDS011;5755;48.116;11.608;2022-12-07T11:06:30;6.65;;;5.32;;
11398;SDS011;5755;48.116;11.608;2022-12-07T11:09:04;6.80;;;5.55;;
11398;SDS011;5755;48.116;11.608;2022-12-07T11:11:48;7.85;;;5.43;;
11398;SDS011;5755;48.116;11.608;2022-12-07T11:14:26;6.32;;;5.68;;
11398;SDS011;5755;48.116;11.608;2022-12-07T11:17:04;6.43;;;5.43;;
11398;SDS011;5755;48.116;11.608;2022-12-07T11:19:43;6.13;;;5.53;;
11398;SDS011;5755;48.116;11.608;2022-12-07T11:22:19;6.47;;;5.23;;
11398;SDS011;5755;48.116;11.608;2022-12-07T11:24:53;5.28;;;4.75;;
11398;SDS011;5755;48.116;11.608;2022-12-07T11:27:29;5.73;;;5.13;;
11398;SDS011;5755;48.116;11.608;2022-12-07T11:30:13;7.45;;;5.10;;
11398;SDS011;5755;48.116;11.608;2022-12-07T11:32:56;7.57;;;5.35;;
11398;SDS011;5755;48.116;11.608;2022-12-07T11:35:33;6.93;;;4.93;;
11398;SDS011;5755;48.116;11.608;2022-12-07T11:38:07;7.18;;;5.20;;
11398;SDS011;5755;48.116;11.608;2022-12-07T11:40:39;5.90;;;4.53;;
11398;SDS011;5755;48.116;11.608;2022-12-07T11:43:13;5.10;;;4.60;;
11398;SDS011;5755;48.116;11.608;2022-12-07T11:45:47;5.60;;;4.15;;
11398;SDS011;5755;48.116;11.608;2022-12-07T11:48:24;5.22;;;4.55;;
11398;SDS011;5755;48.116;11.608;2022-12-07T11:50:58;9.35;;;4.97;;
11398;SDS011;5755;48.116;11.608;2022-12-07T11:53:27;5.90;;;4.50;;
11398;SDS011;5755;48.116;11.608;2022-12-07T11:56:00;5.07;;;4.25;;
11398;SDS011;5755;48.116;11.608;2022-12-07T11:58:42;6.15;;;5.00;;
11398;SDS011;5755;48.116;11.608;2022-12-07T12:01:18;5.40;;;4.80;;
11398;SDS011;5755;48.116;11.608;2022-12-07T12:04:07;6.50;;;4.93;;
11398;SDS011;5755;48.116;11.608;2022-12-07T12:06:45;6.78;;;5.20;;
11398;SDS011;5755;48.116;11.608;2022-12-07T12:09:13;5.65;;;4.57;;
11398;SDS011;5755;48.116;11.608;2022-12-07T12:11:48;6.88;;;5.05;;
11398;SDS011;5755;48.116;11.608;2022-12-07T12:14:32;6.07;;;4.90;;
11398;SDS011;5755;48.116;11.608;2022-12-07T12:17:23;6.33;;;4.53;;
11398;SDS011;5755;48.116;11.608;2022-12-07T12:20:18;6.23;;;5.10;;
11398;SDS011;5755;48.116;11.608;2022-12-07T12:22:48;7.67;;;5.23;;
11398;SDS011;5755;48.116;11.608;2022-12-07T12:25:20;7.97;;;5.05;;
11398;SDS011;5755;48.116;11.608;2022-12-07T12:27:49;8.15;;;5.32;;
11398;SDS011;5755;48.116;11.608;2022-12-07T12:30:28;6.43;;;5.53;;
11398;SDS011;5755;48.116;11.608;2022-12-07T12:33:03;8.10;;;5.50;;
11398;SDS011;5755;48.116;11.608;2022-12-07T12:35:34;6.90;;;5.53;;
11398;SDS011;5755;48.116;11.608;2022-12-07T12:40:58;7.22;;;5.90;;
11398;SDS011;5755;48.116;11.608;2022-12-07T12:43:48;6.72;;;5.60;;
11398;SDS011;5755;48.116;11.608;2022-12-07T12:58:35;7.05;;;6.20;;
11398;SDS011;5755;48.116;11.608;2022-12-07T13:07:06;7.57;;;6.20;;
11398;SDS011;5755;48.116;11.608;2022-12-07T13:09:46;8.20;;;6.10;;
11398;SDS011;5755;48.116;11.608;2022-12-07T13:12:13;9.00;;;6.73;;
11398;SDS011;5755;48.116;11.608;2022-12-07T13:14:53;8.68;;;6.57;;
11398;SDS011;5755;48.116;11.608;2022-12-07T13:23:29;10.03;;;7.20;;
11398;SDS011;5755;48.116;11.608;2022-12-07T13:26:00;8.27;;;6.30;;
11398;SDS011;5755;48.116;11.608;2022-12-07T13:28:36;9.60;;;6.70;;
11398;SDS011;5755;48.116;11.608;2022-12-07T13:31:16;8.17;;;6.33;;
11398;SDS011;5755;48.116;11.608;2022-12-07T13:33:49;7.93;;;6.27;;
11398;SDS011;5755;48.116;11.608;2022-12-07T13:36:18;9.80;;;7.10;;
11398;SDS011;5755;48.116;11.608;2022-12-07T13:38:51;7.27;;;6.40;;
11398;SDS011;5755;48.116;11.608;2022-12-07T13:41:20;8.77;;;6.70;;
11398;SDS011;5755;48.116;11.608;2022-12-07T13:43:49;17.17;;;6.97;;
11398;SDS011;5755;48.116;11.608;2022-12-07T13:46:21;7.30;;;6.50;;
11398;SDS011;5755;48.116;11.608;2022-12-07T13:48:53;8.18;;;6.78;;
11398;SDS011;5755;48.116;11.608;2022-12-07T13:51:22;11.50;;;6.80;;
11398;SDS011;5755;48.116;11.608;2022-12-07T13:53:51;7.90;;;6.63;;
11398;SDS011;5755;48.116;11.608;2022-12-07T13:56:20;7.82;;;6.75;;
11398;SDS011;5755;48.116;11.608;2022-12-07T13:58:52;7.37;;;6.30;;
11398;SDS011;5755;48.116;11.608;2022-12-07T14:01:19;8.68;;;6.85;;
11398;SDS011;5755;48.116;11.608;2022-12-07T14:03:47;9.67;;;6.70;;
11398;SDS011;5755;48.116;11.608;2022-12-07T14:06:16;7.82;;;6.07;;
11398;SDS011;5755;48.116;11.608;2022-12-07T14:08:46;8.43;;;6.70;;
11398;SDS011;5755;48.116;11.608;2022-12-07T14:11:14;9.30;;;7.23;;
11398;SDS011;5755;48.116;11.608;2022-12-07T14:13:45;9.55;;;6.68;;
11398;SDS011;5755;48.116;11.608;2022-12-07T14:16:24;9.55;;;6.75;;
11398;SDS011;5755;48.116;11.608;2022-12-07T14:18:54;8.70;;;6.80;;
11398;SDS011;5755;48.116;11.608;2022-12-07T14:21:23;8.00;;;6.70;;
11398;SDS011;5755;48.116;11.608;2022-12-07T14:24:09;7.77;;;6.73;;
11398;SDS011;5755;48.116;11.608;2022-12-07T14:26:39;9.77;;;6.93;;
11398;SDS011;5755;48.116;11.608;2022-12-07T14:29:19;9.87;;;7.00;;
11398;SDS011;5755;48.116;11.608;2022-12-07T14:31:57;10.70;;;7.03;;
11398;SDS011;5755;48.116;11.608;2022-12-07T14:34:27;8.37;;;6.60;;
11398;SDS011;5755;48.116;11.608;2022-12-07T14:36:54;8.67;;;6.90;;
11398;SDS011;5755;48.116;11.608;2022-12-07T14:39:21;10.47;;;7.03;;
11398;SDS011;5755;48.116;11.608;2022-12-07T14:41:47;8.03;;;6.60;;
11398;SDS011;5755;48.116;11.608;2022-12-07T14:44:18;7.83;;;6.37;;
11398;SDS011;5755;48.116;11.608;2022-12-07T14:46:47;8.23;;;6.77;;
11398;SDS011;5755;48.116;11.608;2022-12-07T14:49:16;7.73;;;6.50;;
11398;SDS011;5755;48.116;11.608;2022-12-07T14:51:43;8.83;;;6.53;;
11398;SDS011;5755;48.116;11.608;2022-12-07T14:54:15;8.77;;;6.97;;
11398;SDS011;5755;48.116;11.608;2022-12-07T14:56:44;10.53;;;7.10;;
11398;SDS011;5755;48.116;11.608;2022-12-07T14:59:14;8.10;;;6.47;;
11398;SDS011;5755;48.116;11.608;2022-12-07T15:01:42;9.37;;;6.93;;
11398;SDS011;5755;48.116;11.608;2022-12-07T15:04:09;7.83;;;6.10;;
11398;SDS011;5755;48.116;11.608;2022-12-07T15:06:42;9.50;;;6.97;;
11398;SDS011;5755;48.116;11.608;2022-12-07T15:09:20;8.70;;;7.13;;
11398;SDS011;5755;48.116;11.608;2022-12-07T15:11:47;9.03;;;6.73;;
11398;SDS011;5755;48.116;11.608;2022-12-07T15:14:13;9.00;;;7.03;;
11398;SDS011;5755;48.116;11.608;2022-12-07T15:16:41;9.50;;;6.83;;
11398;SDS011;5755;48.116;11.608;2022-12-07T15:19:10;11.47;;;7.50;;
11398;SDS011;5755;48.116;11.608;2022-12-07T15:21:40;9.73;;;7.60;;
11398;SDS011;5755;48.116;11.608;2022-12-07T15:24:09;9.37;;;7.30;;
11398;SDS011;5755;48.116;11.608;2022-12-07T15:26:37;8.60;;;7.00;;
11398;SDS011;5755;48.116;11.608;2022-12-07T15:29:05;9.83;;;7.70;;
11398;SDS011;5755;48.116;11.608;2022-12-07T15:31:32;9.53;;;7.60;;
11398;SDS011;5755;48.116;11.608;2022-12-07T15:34:00;9.97;;;7.80;;
11398;SDS011;5755;48.116;11.608;2022-12-07T15:36:27;8.80;;;7.80;;
11398;SDS011;5755;48.116;11.608;2022-12-07T15:38:58;11.40;;;7.70;;